Time;durP1;ratioP1;P1;durP2;ratioP2;P2;SDS_P1;SDS_P2;PMS_P1;PMS_P2;Temp;Humidity;BMP_temperature;BMP_pressure;BME280_temperature;BME280_humidity;BME280_pressure;Samples;Min_cycle;Max_cycle;Signal;HPM_P1;HPM_P2
2022/09/30 00:01:01;;;;;;;3.92;3.42;;;9.50;99.90;;;;;;4997225;28;20081;-78
2022/09/30 00:03:27;;;;;;;5.25;3.50;;;9.40;99.90;;;;;;5010754;28;20081;-78
2022/09/30 00:06:05;;;;;;;6.93;4.15;;;9.50;99.90;;;;;;5011733;28;20088;-78
2022/09/30 00:08:31;;;;;;;3.88;3.58;;;9.40;99.90;;;;;;4994852;28;20046;-78
2022/09/30 00:11:03;;;;;;;3.80;3.50;;;9.40;99.90;;;;;;5001188;28;20136;-79
2022/09/30 00:13:30;;;;;;;5.50;3.10;;;9.40;99.90;;;;;;5010641;28;20129;-79
2022/09/30 00:15:56;;;;;;;5.15;4.25;;;9.40;99.90;;;;;;5004724;28;20045;-78
2022/09/30 00:18:21;;;;;;;5.18;3.25;;;9.40;99.90;;;;;;4998964;28;20587;-79
2022/09/30 00:20:47;;;;;;;4.38;3.10;;;9.30;99.90;;;;;;5005898;28;20241;-79
2022/09/30 00:23:13;;;;;;;4.07;3.53;;;9.30;99.90;;;;;;4996454;28;20043;-79
2022/09/30 00:25:38;;;;;;;4.32;3.92;;;9.30;99.90;;;;;;5002857;28;20504;-79
2022/09/30 00:28:06;;;;;;;6.72;3.80;;;9.30;99.90;;;;;;4990154;28;20069;-78
2022/09/30 00:30:33;;;;;;;3.20;3.00;;;9.30;99.90;;;;;;5002122;28;20083;-79
2022/09/30 00:32:59;;;;;;;3.80;3.50;;;9.30;99.90;;;;;;5009479;28;20060;-79
2022/09/30 00:35:25;;;;;;;3.90;3.50;;;9.30;99.90;;;;;;5008246;28;20119;-79
2022/09/30 00:37:51;;;;;;;3.90;3.60;;;9.30;99.90;;;;;;5006393;28;20493;-79
2022/09/30 00:40:19;;;;;;;3.25;1.80;;;9.20;99.90;;;;;;4987612;28;20504;-79
2022/09/30 00:42:45;;;;;;;8.93;1.60;;;9.20;99.90;;;;;;5005699;28;20045;-79
2022/09/30 00:45:12;;;;;;;2.55;1.15;;;9.00;99.90;;;;;;4991697;28;20048;-79
2022/09/30 00:47:44;;;;;;;1.23;1.13;;;8.90;99.90;;;;;;5001767;28;20038;-79
2022/09/30 00:50:19;;;;;;;3.17;2.40;;;8.80;99.90;;;;;;4993552;28;20042;-79
2022/09/30 00:52:50;;;;;;;2.85;2.60;;;8.80;99.90;;;;;;5002133;28;20120;-78
2022/09/30 00:55:32;;;;;;;2.92;2.50;;;8.80;99.90;;;;;;5001420;28;20052;-79
2022/09/30 00:58:00;;;;;;;2.30;2.10;;;8.70;99.90;;;;;;5007913;28;20047;-79
2022/09/30 01:00:25;;;;;;;3.63;1.73;;;8.70;99.90;;;;;;4995794;28;20296;-79
2022/09/30 01:02:52;;;;;;;5.00;3.50;;;8.60;99.90;;;;;;5010248;28;20045;-78
2022/09/30 01:05:19;;;;;;;3.67;3.38;;;8.60;99.90;;;;;;4985327;28;20500;-79
2022/09/30 01:07:46;;;;;;;3.90;3.60;;;8.60;99.90;;;;;;4999407;28;20501;-79
2022/09/30 01:10:12;;;;;;;5.80;3.92;;;8.60;99.90;;;;;;5005967;28;20041;-79
2022/09/30 01:12:38;;;;;;;4.10;3.80;;;8.60;99.90;;;;;;5005137;28;20115;-78
2022/09/30 01:15:04;;;;;;;4.05;3.75;;;8.50;99.90;;;;;;4996102;28;20437;-78
2022/09/30 01:17:58;;;;;;;7.32;3.38;;;8.50;99.90;;;;;;5012827;28;20124;-78
2022/09/30 01:20:42;;;;;;;134.73;5.85;;;8.50;99.90;;;;;;4993190;28;20042;-78
2022/09/30 01:23:50;;;;;;;21.65;2.42;;;8.40;99.90;;;;;;5000109;28;20056;-78
2022/09/30 01:26:44;;;;;;;120.85;6.28;;;8.40;99.90;;;;;;5000510;28;20131;-78
2022/09/30 01:29:31;;;;;;;96.55;4.18;;;8.30;99.90;;;;;;4996901;28;20104;-78
2022/09/30 01:32:03;;;;;;;88.00;3.80;;;8.20;99.90;;;;;;5002154;28;20050;-79
2022/09/30 01:34:43;;;;;;;85.70;4.05;;;8.10;99.90;;;;;;5011339;28;20403;-78
2022/09/30 01:37:36;;;;;;;157.55;5.40;;;8.00;99.90;;;;;;4991429;28;20465;-78
2022/09/30 01:40:10;;;;;;;39.38;3.58;;;8.00;99.90;;;;;;4993347;28;20043;-78
2022/09/30 01:42:42;;;;;;;16.55;3.40;;;8.00;99.90;;;;;;5003494;28;20051;-79
2022/09/30 01:45:12;;;;;;;10.25;3.50;;;8.00;99.90;;;;;;5002124;28;20050;-78
2022/09/30 01:47:47;;;;;;;4.75;3.60;;;8.00;99.90;;;;;;5006270;28;20168;-78
2022/09/30 01:50:35;;;;;;;12.07;4.38;;;8.00;99.90;;;;;;5004673;28;20129;-79
2022/09/30 01:53:13;;;;;;;4.50;4.20;;;8.00;99.90;;;;;;5005955;28;20091;-78
2022/09/30 01:55:49;;;;;;;11.18;4.68;;;8.00;99.90;;;;;;4990010;28;20096;-79
2022/09/30 01:58:20;;;;;;;61.65;5.13;;;8.00;99.90;;;;;;5002250;28;20107;-79
2022/09/30 02:00:51;;;;;;;42.58;4.72;;;8.00;99.90;;;;;;4999325;28;20087;-79
2022/09/30 02:03:30;;;;;;;70.03;6.40;;;8.00;99.90;;;;;;5005225;28;20409;-79
2022/09/30 02:06:06;;;;;;;17.08;4.13;;;8.00;99.90;;;;;;5000702;28;20068;-79
2022/09/30 02:08:49;;;;;;;8.90;3.80;;;8.00;99.90;;;;;;4996555;28;20132;-79
2022/09/30 02:11:20;;;;;;;7.20;3.88;;;8.00;99.90;;;;;;4996315;28;20048;-78
2022/09/30 02:14:01;;;;;;;31.10;5.43;;;8.00;99.90;;;;;;4996727;28;20045;-79
2022/09/30 02:16:48;;;;;;;75.43;6.00;;;8.00;99.90;;;;;;5006937;28;20076;-78
2022/09/30 02:19:37;;;;;;;150.82;7.75;;;8.00;99.90;;;;;;5001870;28;20183;-79
2022/09/30 02:22:09;;;;;;;32.95;4.53;;;8.00;99.90;;;;;;5006761;28;20072;-78
2022/09/30 02:24:36;;;;;;;21.65;4.60;;;8.00;99.90;;;;;;4980042;28;20796;-79
2022/09/30 02:27:10;;;;;;;5.70;5.20;;;7.90;99.90;;;;;;5009562;28;20045;-78
2022/09/30 02:29:41;;;;;;;4.90;4.50;;;7.90;99.90;;;;;;4984352;28;20120;-79
2022/09/30 02:32:17;;;;;;;5.53;4.80;;;7.90;99.90;;;;;;4999889;28;20057;-78
2022/09/30 02:35:04;;;;;;;7.75;4.00;;;8.00;99.90;;;;;;4980604;28;20167;-79
2022/09/30 02:37:35;;;;;;;6.00;4.03;;;8.00;99.90;;;;;;4997444;28;20045;-79
2022/09/30 02:40:09;;;;;;;5.95;4.30;;;7.90;99.90;;;;;;4998451;28;20061;-79
2022/09/30 02:42:35;;;;;;;5.10;4.70;;;7.90;99.90;;;;;;4991581;28;20041;-79
2022/09/30 02:45:07;;;;;;;6.45;5.32;;;7.90;99.90;;;;;;4979907;28;20049;-77
2022/09/30 02:47:51;;;;;;;6.35;5.75;;;7.90;99.90;;;;;;5002466;28;20050;-79
2022/09/30 02:50:36;;;;;;;32.70;6.75;;;7.80;99.90;;;;;;4995806;28;20073;-79
2022/09/30 02:53:17;;;;;;;293.95;9.90;;;7.80;99.90;;;;;;4982012;28;20050;-79
2022/09/30 02:55:59;;;;;;;352.60;9.90;;;7.70;99.90;;;;;;4985808;28;20042;-79
2022/09/30 02:58:25;;;;;;;341.80;10.23;;;7.60;99.90;;;;;;4997171;28;20103;-79
2022/09/30 03:00:53;;;;;;;149.93;6.22;;;7.40;99.90;;;;;;5003925;28;20045;-79
2022/09/30 03:03:24;;;;;;;206.85;7.50;;;7.40;99.90;;;;;;5002365;28;20050;-78
2022/09/30 03:05:50;;;;;;;145.88;6.88;;;7.30;99.90;;;;;;5004696;28;20050;-79
2022/09/30 03:08:16;;;;;;;124.68;5.70;;;7.30;99.90;;;;;;4996343;28;20068;-77
2022/09/30 03:10:43;;;;;;;143.10;6.15;;;7.30;99.90;;;;;;4996177;28;20070;-78
2022/09/30 03:13:28;;;;;;;186.93;7.70;;;7.30;99.90;;;;;;5000891;28;20034;-79
2022/09/30 03:16:18;;;;;;;120.88;7.35;;;7.20;99.90;;;;;;5000484;28;20117;-77
2022/09/30 03:19:22;;;;;;;69.20;4.35;;;7.20;99.90;;;;;;5002068;28;20052;-79
2022/09/30 03:22:20;;;;;;;62.05;4.38;;;7.20;99.90;;;;;;4992853;28;20054;-79
2022/09/30 03:24:52;;;;;;;173.07;7.28;;;7.00;99.90;;;;;;4993689;28;20045;-79
2022/09/30 03:28:01;;;;;;;100.47;6.65;;;7.00;99.90;;;;;;4988977;28;20545;-78
2022/09/30 03:30:30;;;;;;;47.03;7.13;;;7.00;99.90;;;;;;4985196;28;20093;-79
2022/09/30 03:33:26;;;;;;;47.30;8.07;;;7.00;99.90;;;;;;5004053;28;20042;-79
2022/09/30 03:36:10;;;;;;;23.88;5.80;;;7.00;99.90;;;;;;4997021;28;20046;-78
2022/09/30 03:39:04;;;;;;;16.23;5.38;;;7.10;99.90;;;;;;5002135;28;20054;-79
2022/09/30 03:41:47;;;;;;;14.30;5.03;;;7.20;99.90;;;;;;4994922;28;20045;-79
2022/09/30 03:44:28;;;;;;;42.58;6.22;;;7.20;99.90;;;;;;5007191;28;20046;-79
2022/09/30 03:46:59;;;;;;;44.67;6.13;;;7.20;99.90;;;;;;5000988;28;20058;-78
2022/09/30 03:49:29;;;;;;;35.42;5.72;;;7.20;99.90;;;;;;5002614;28;20050;-79
2022/09/30 03:51:56;;;;;;;23.88;5.70;;;7.20;99.90;;;;;;4998903;28;20048;-79
2022/09/30 03:54:22;;;;;;;68.95;6.60;;;7.20;99.90;;;;;;5006554;28;20038;-79
2022/09/30 03:56:49;;;;;;;68.07;6.07;;;7.20;99.90;;;;;;5002003;28;20045;-79
2022/09/30 03:59:23;;;;;;;55.17;4.55;;;7.20;99.90;;;;;;4991628;28;20246;-79
2022/09/30 04:01:49;;;;;;;124.57;7.20;;;7.20;99.90;;;;;;4997679;28;20131;-79
2022/09/30 04:04:15;;;;;;;32.70;4.93;;;7.10;99.90;;;;;;5005046;28;20037;-79
2022/09/30 04:06:41;;;;;;;34.05;4.10;;;7.00;99.90;;;;;;4989178;28;20133;-78
2022/09/30 04:09:06;;;;;;;33.97;5.28;;;7.00;99.90;;;;;;4995713;28;20128;-78
2022/09/30 04:11:32;;;;;;;32.35;4.53;;;6.90;99.90;;;;;;4991100;28;20100;-78
2022/09/30 04:13:57;;;;;;;4.78;4.15;;;6.90;99.90;;;;;;5003342;28;20050;-78
2022/09/30 04:16:23;;;;;;;7.63;4.05;;;6.90;99.90;;;;;;5001692;28;20060;-78
2022/09/30 04:18:49;;;;;;;42.92;5.30;;;6.90;99.90;;;;;;5012992;28;20041;-78
2022/09/30 04:21:15;;;;;;;16.23;4.60;;;6.90;99.90;;;;;;4998564;28;20041;-78
2022/09/30 04:23:41;;;;;;;11.10;4.65;;;6.90;99.90;;;;;;5009365;28;20377;-78
2022/09/30 04:26:12;;;;;;;147.27;6.88;;;6.90;99.90;;;;;;4994068;28;20137;-79
2022/09/30 04:28:37;;;;;;;11.40;3.20;;;6.90;99.90;;;;;;5000781;28;20154;-78
2022/09/30 04:31:05;;;;;;;120.05;6.28;;;6.90;99.90;;;;;;5004995;28;20126;-78
2022/09/30 04:33:31;;;;;;;30.50;3.55;;;6.70;99.90;;;;;;4984787;28;20136;-78
2022/09/30 04:35:58;;;;;;;19.65;3.90;;;6.70;99.90;;;;;;5008900;28;20053;-78
2022/09/30 04:38:25;;;;;;;7.60;3.63;;;6.60;99.90;;;;;;5014480;28;20041;-78
2022/09/30 04:40:51;;;;;;;177.85;8.23;;;6.60;99.90;;;;;;5002780;28;20108;-79
2022/09/30 04:43:18;;;;;;;12.10;4.30;;;6.50;99.90;;;;;;4991694;28;20365;-78
2022/09/30 04:45:47;;;;;;;21.67;4.90;;;6.50;99.90;;;;;;5000866;28;20053;-78
2022/09/30 04:48:13;;;;;;;5.57;5.07;;;6.50;99.90;;;;;;5008373;28;20038;-79
2022/09/30 04:50:40;;;;;;;5.85;4.95;;;6.50;99.90;;;;;;4995964;28;20156;-78
2022/09/30 04:53:07;;;;;;;7.78;4.90;;;6.50;99.90;;;;;;5005950;28;20062;-79
2022/09/30 04:55:32;;;;;;;143.95;8.48;;;6.50;99.90;;;;;;4996907;28;20042;-78
2022/09/30 04:57:58;;;;;;;39.70;4.78;;;6.60;99.90;;;;;;4996537;28;20041;-78
2022/09/30 05:00:24;;;;;;;17.73;4.30;;;6.50;99.90;;;;;;5006224;28;20064;-78
2022/09/30 05:02:50;;;;;;;30.85;4.32;;;6.50;99.90;;;;;;5000147;28;20046;-79
2022/09/30 05:05:16;;;;;;;22.70;4.35;;;6.40;99.90;;;;;;5004264;28;20045;-79
2022/09/30 05:07:43;;;;;;;23.55;3.85;;;6.30;99.90;;;;;;4998584;28;20520;-79
2022/09/30 05:10:10;;;;;;;16.58;4.30;;;6.20;99.90;;;;;;4998898;28;20343;-77
2022/09/30 05:12:36;;;;;;;10.73;3.40;;;6.10;99.90;;;;;;4997896;28;20034;-78
2022/09/30 05:15:05;;;;;;;3.78;3.33;;;6.10;99.90;;;;;;4999143;28;20374;-78
2022/09/30 05:17:31;;;;;;;3.80;3.50;;;6.10;99.90;;;;;;4999416;28;20045;-78
2022/09/30 05:19:57;;;;;;;5.60;5.03;;;6.10;99.90;;;;;;4993670;28;20097;-79
2022/09/30 05:22:24;;;;;;;6.20;5.50;;;6.10;99.90;;;;;;5001978;28;20054;-79
2022/09/30 05:24:54;;;;;;;44.35;6.13;;;6.10;99.90;;;;;;4994288;28;20068;-79
2022/09/30 05:27:21;;;;;;;6.13;5.63;;;6.20;99.90;;;;;;5000036;28;20052;-78
2022/09/30 05:29:46;;;;;;;6.40;5.78;;;6.20;99.90;;;;;;4994779;28;20041;-78
2022/09/30 05:32:12;;;;;;;6.50;5.90;;;6.20;99.90;;;;;;4999321;28;20033;-78
2022/09/30 05:34:38;;;;;;;6.10;5.50;;;6.20;99.90;;;;;;4998313;28;20124;-79
2022/09/30 05:37:04;;;;;;;5.05;4.65;;;6.30;99.90;;;;;;4996652;28;20053;-79
2022/09/30 05:39:30;;;;;;;4.90;4.50;;;6.30;99.90;;;;;;4997005;28;20042;-78
2022/09/30 05:41:57;;;;;;;4.75;4.35;;;6.30;99.90;;;;;;5001851;28;20046;-78
2022/09/30 05:44:22;;;;;;;7.65;6.10;;;6.30;99.90;;;;;;5002145;28;20053;-78
2022/09/30 05:46:48;;;;;;;7.15;5.78;;;6.30;99.90;;;;;;4997107;28;20078;-78
2022/09/30 05:49:13;;;;;;;6.13;5.63;;;6.40;99.90;;;;;;4995598;28;20049;-78
2022/09/30 05:51:40;;;;;;;6.50;5.95;;;6.30;99.90;;;;;;4996107;28;20112;-79
2022/09/30 05:54:05;;;;;;;7.78;7.15;;;6.40;99.90;;;;;;4989199;28;20040;-78
2022/09/30 05:56:33;;;;;;;6.15;5.65;;;6.40;99.90;;;;;;4997318;28;20050;-79
2022/09/30 05:58:59;;;;;;;56.47;6.03;;;6.50;99.90;;;;;;5001825;28;20191;-78
2022/09/30 06:01:24;;;;;;;29.17;4.38;;;6.40;99.90;;;;;;4999070;28;20128;-78
2022/09/30 06:03:50;;;;;;;6.50;3.05;;;6.40;99.90;;;;;;4994721;28;20046;-79
2022/09/30 06:06:17;;;;;;;5.85;3.70;;;6.40;99.90;;;;;;4988600;28;20053;-78
2022/09/30 06:08:44;;;;;;;4.70;3.10;;;6.30;99.90;;;;;;4997999;28;20037;-78
2022/09/30 06:11:12;;;;;;;3.67;3.38;;;6.30;99.90;;;;;;4992202;28;20520;-79
2022/09/30 06:13:39;;;;;;;2.75;2.50;;;6.30;99.90;;;;;;5002949;28;20124;-79
2022/09/30 06:16:05;;;;;;;3.38;3.08;;;6.20;99.90;;;;;;4989151;28;20042;-79
2022/09/30 06:18:31;;;;;;;5.47;3.75;;;6.20;99.90;;;;;;4993734;28;20088;-79
2022/09/30 06:20:57;;;;;;;4.93;4.10;;;6.20;99.90;;;;;;5000032;28;20590;-78
2022/09/30 06:23:23;;;;;;;5.65;4.55;;;6.20;99.90;;;;;;5001666;28;20049;-79
2022/09/30 06:25:51;;;;;;;6.13;5.53;;;6.20;99.90;;;;;;4998236;28;20196;-79
2022/09/30 06:28:16;;;;;;;10.82;7.57;;;6.20;99.90;;;;;;5000672;28;20400;-79
2022/09/30 06:30:45;;;;;;;7.80;7.10;;;6.30;99.90;;;;;;4991752;28;20037;-78
2022/09/30 06:33:12;;;;;;;8.43;7.57;;;6.30;99.90;;;;;;4997417;28;20121;-78
2022/09/30 06:35:40;;;;;;;9.88;7.78;;;6.30;99.90;;;;;;4997233;28;20064;-78
2022/09/30 06:38:06;;;;;;;8.18;7.05;;;6.40;99.90;;;;;;4984706;28;20400;-79
2022/09/30 06:40:31;;;;;;;10.43;9.35;;;6.50;99.90;;;;;;4999594;28;20126;-79
2022/09/30 06:42:58;;;;;;;8.80;7.85;;;6.50;99.90;;;;;;4994710;28;20382;-78
2022/09/30 06:45:24;;;;;;;8.18;7.03;;;6.60;99.90;;;;;;4993693;28;20046;-78
2022/09/30 06:47:50;;;;;;;11.25;9.77;;;6.60;99.90;;;;;;4984105;28;20037;-76
2022/09/30 06:50:21;;;;;;;12.70;10.70;;;6.70;99.90;;;;;;5006716;28;20498;-78
2022/09/30 06:52:47;;;;;;;10.32;9.38;;;6.80;99.90;;;;;;4976341;28;20052;-80
2022/09/30 06:55:13;;;;;;;14.57;8.52;;;6.80;99.90;;;;;;5000387;28;20046;-78
2022/09/30 06:57:39;;;;;;;12.52;11.25;;;6.90;99.90;;;;;;5004586;28;20180;-80
2022/09/30 07:00:06;;;;;;;17.65;13.18;;;7.00;99.90;;;;;;4992649;28;20124;-78
2022/09/30 07:02:33;;;;;;;15.88;14.25;;;7.10;99.90;;;;;;5002152;28;20107;-79
2022/09/30 07:04:59;;;;;;;18.10;14.77;;;7.20;99.90;;;;;;4981782;28;20136;-78
2022/09/30 07:07:24;;;;;;;17.35;15.55;;;7.30;99.90;;;;;;4998284;28;20153;-78
2022/09/30 07:09:50;;;;;;;17.38;15.57;;;7.50;99.90;;;;;;4986104;28;20084;-79
2022/09/30 07:12:16;;;;;;;16.45;14.82;;;7.50;99.90;;;;;;4994892;28;20132;-78
2022/09/30 07:14:41;;;;;;;22.33;16.98;;;7.60;99.90;;;;;;4999331;28;20037;-78
2022/09/30 07:17:07;;;;;;;20.08;17.38;;;7.80;99.90;;;;;;5003137;28;20046;-79
2022/09/30 07:19:34;;;;;;;20.58;16.08;;;7.90;99.90;;;;;;4989097;28;20096;-79
2022/09/30 07:22:26;;;;;;;17.30;15.05;;;8.00;99.90;;;;;;4997833;28;20045;-78
2022/09/30 07:24:45;;;;;;;20.90;15.90;;;8.10;99.90;;;;;;5000651;28;20049;-78
2022/09/30 07:27:12;;;;;;;22.58;15.50;;;8.30;99.90;;;;;;4998429;28;20050;-78
2022/09/30 07:29:39;;;;;;;21.25;15.73;;;8.40;99.90;;;;;;4998673;28;20042;-79
2022/09/30 07:32:06;;;;;;;24.65;16.58;;;8.50;99.90;;;;;;4999317;28;20046;-79
2022/09/30 07:34:31;;;;;;;18.83;15.27;;;8.60;99.90;;;;;;4987391;28;20050;-79
2022/09/30 07:36:57;;;;;;;22.35;15.50;;;8.70;99.90;;;;;;4984570;28;20050;-79
2022/09/30 07:39:23;;;;;;;21.38;15.23;;;8.80;99.90;;;;;;4983134;28;20043;-79
2022/09/30 07:41:49;;;;;;;22.67;16.35;;;8.80;99.90;;;;;;4985436;28;20058;-81
2022/09/30 07:44:15;;;;;;;25.23;14.82;;;8.80;99.90;;;;;;4994756;28;20048;-79
2022/09/30 07:46:42;;;;;;;24.65;14.98;;;8.90;99.90;;;;;;4997210;28;20049;-78
2022/09/30 07:49:13;;;;;;;22.95;15.20;;;8.90;99.90;;;;;;4985551;28;20128;-80
2022/09/30 07:51:44;;;;;;;18.90;14.85;;;8.90;99.90;;;;;;4999995;28;20120;-78
2022/09/30 07:54:16;;;;;;;21.42;15.30;;;9.00;99.90;;;;;;5005695;28;20042;-80
2022/09/30 07:56:42;;;;;;;20.23;14.90;;;9.00;99.90;;;;;;5010780;28;20176;-80
2022/09/30 07:59:09;;;;;;;19.80;15.80;;;9.00;99.90;;;;;;5005088;28;20315;-79
2022/09/30 08:01:35;;;;;;;21.65;15.43;;;9.10;99.90;;;;;;4995846;28;20114;-79
2022/09/30 08:04:04;;;;;;;23.67;17.13;;;9.10;99.90;;;;;;5002597;28;20133;-78
2022/09/30 08:06:31;;;;;;;23.33;16.92;;;9.20;99.90;;;;;;4995088;28;20128;-77
2022/09/30 08:08:57;;;;;;;22.52;16.25;;;9.20;99.90;;;;;;5000735;28;20042;-76
2022/09/30 08:11:24;;;;;;;25.55;16.95;;;9.30;99.90;;;;;;5000527;28;20046;-76
2022/09/30 08:13:51;;;;;;;21.95;17.45;;;9.40;99.90;;;;;;5005063;28;20050;-77
2022/09/30 08:16:17;;;;;;;22.95;18.35;;;9.40;99.90;;;;;;5001022;28;20049;-77
2022/09/30 08:18:43;;;;;;;24.30;18.80;;;9.50;99.90;;;;;;5000420;28;20069;-77
2022/09/30 08:21:08;;;;;;;24.33;19.67;;;9.60;99.90;;;;;;5008180;28;20491;-77
2022/09/30 08:23:34;;;;;;;21.88;16.98;;;9.70;99.90;;;;;;5000766;28;20183;-77
2022/09/30 08:26:08;;;;;;;24.48;18.92;;;9.80;99.90;;;;;;5002375;28;20464;-77
2022/09/30 08:28:34;;;;;;;20.92;17.25;;;9.90;99.90;;;;;;5009518;28;20041;-77
2022/09/30 08:31:20;;;;;;;23.42;18.55;;;10.00;99.90;;;;;;4998108;28;20082;-77
2022/09/30 08:33:46;;;;;;;24.23;18.30;;;10.10;99.90;;;;;;5010791;28;20041;-77
2022/09/30 08:36:16;;;;;;;19.13;15.70;;;10.10;99.90;;;;;;5000305;28;20540;-77
2022/09/30 08:38:42;;;;;;;19.55;14.10;;;10.30;99.90;;;;;;5008054;28;20104;-76
2022/09/30 08:41:26;;;;;;;16.98;14.93;;;10.40;99.90;;;;;;4997822;28;20147;-77
2022/09/30 08:44:15;;;;;;;17.02;14.90;;;10.40;99.90;;;;;;5014865;28;20069;-77
2022/09/30 08:46:55;;;;;;;16.75;14.95;;;10.50;99.90;;;;;;5008607;28;20063;-77
2022/09/30 08:49:44;;;;;;;18.38;15.27;;;10.50;99.90;;;;;;5014285;28;20532;-77
2022/09/30 08:52:16;;;;;;;19.40;15.18;;;10.60;99.90;;;;;;5003233;28;20052;-78
2022/09/30 08:54:47;;;;;;;18.57;15.13;;;10.70;99.90;;;;;;4998872;28;20045;-77
2022/09/30 08:57:13;;;;;;;15.50;13.60;;;10.90;99.90;;;;;;5003455;28;20315;-77
2022/09/30 08:59:54;;;;;;;14.05;12.63;;;11.00;99.90;;;;;;5008576;28;20054;-77
2022/09/30 09:02:38;;;;;;;12.35;10.00;;;11.10;99.90;;;;;;4996223;28;20073;-77
2022/09/30 09:05:06;;;;;;;13.60;11.68;;;11.20;99.90;;;;;;5003744;28;20041;-77
2022/09/30 09:07:48;;;;;;;12.85;11.30;;;11.40;99.90;;;;;;5000022;28;20081;-77
2022/09/30 09:10:23;;;;;;;15.10;12.82;;;11.50;99.90;;;;;;5015543;28;20139;-76
2022/09/30 09:13:24;;;;;;;15.63;10.73;;;11.60;99.90;;;;;;4990674;28;20633;-76
2022/09/30 09:16:11;;;;;;;14.60;10.75;;;11.60;99.90;;;;;;4999356;28;20050;-77
2022/09/30 09:18:59;;;;;;;12.23;9.48;;;11.80;99.90;;;;;;5007865;28;20064;-76
2022/09/30 09:21:28;;;;;;;9.88;8.75;;;11.90;99.90;;;;;;5000008;28;20087;-75
2022/09/30 09:23:56;;;;;;;9.50;8.52;;;12.00;99.90;;;;;;5006722;28;20041;-75
2022/09/30 09:26:23;;;;;;;7.70;7.00;;;12.10;99.90;;;;;;5006285;28;20053;-76
2022/09/30 09:29:00;;;;;;;9.63;7.25;;;12.10;99.90;;;;;;5008178;28;20451;-75
2022/09/30 09:31:26;;;;;;;9.68;8.38;;;12.20;99.90;;;;;;4993125;28;20041;-76
2022/09/30 09:34:00;;;;;;;9.43;8.02;;;12.30;99.90;;;;;;4997005;28;20077;-75
2022/09/30 09:36:50;;;;;;;9.18;8.38;;;12.40;99.90;;;;;;4997807;28;20052;-76
2022/09/30 09:39:47;;;;;;;11.50;8.20;;;12.50;99.90;;;;;;5010888;28;20053;-75
2022/09/30 09:42:19;;;;;;;9.77;8.55;;;12.60;99.90;;;;;;5004674;28;20045;-76
2022/09/30 09:45:01;;;;;;;14.43;7.90;;;12.70;99.90;;;;;;5001781;28;20100;-75
2022/09/30 09:47:27;;;;;;;9.60;8.77;;;12.70;99.90;;;;;;5000902;28;20045;-76
2022/09/30 09:49:57;;;;;;;9.40;8.50;;;12.90;99.90;;;;;;5001682;28;20565;-76
2022/09/30 09:52:53;;;;;;;9.57;8.48;;;13.00;99.90;;;;;;5003362;28;20042;-75
2022/09/30 09:55:21;;;;;;;9.15;8.25;;;13.00;99.90;;;;;;4995066;28;20108;-75
2022/09/30 09:57:47;;;;;;;12.27;9.27;;;13.00;99.90;;;;;;4993993;28;20049;-81
2022/09/30 10:03:19;;;;;;;10.55;8.68;;;13.20;99.90;;;;;;4994767;28;20050;-76
2022/09/30 10:06:09;;;;;;;10.55;9.02;;;13.30;99.90;;;;;;5000935;28;20046;-76
2022/09/30 10:08:50;;;;;;;11.88;9.90;;;13.50;99.90;;;;;;4988633;28;20038;-76
2022/09/30 10:11:20;;;;;;;8.98;8.18;;;13.50;99.90;;;;;;4999711;28;20037;-76
2022/09/30 10:13:46;;;;;;;10.98;9.88;;;13.60;99.90;;;;;;4981418;28;20069;-78
2022/09/30 10:16:27;;;;;;;9.68;6.55;;;13.80;99.90;;;;;;5013352;28;20049;-77
2022/09/30 10:18:53;;;;;;;8.55;7.70;;;14.00;99.90;;;;;;4960436;28;20042;-76
2022/09/30 10:21:21;;;;;;;10.65;8.75;;;14.00;99.90;;;;;;4975011;28;20074;-75
2022/09/30 10:23:47;;;;;;;7.97;7.18;;;14.20;99.90;;;;;;5000449;28;20432;-76
2022/09/30 10:26:13;;;;;;;8.00;7.30;;;14.20;99.90;;;;;;5013316;28;20049;-76
2022/09/30 10:28:56;;;;;;;9.30;7.78;;;14.30;99.90;;;;;;5006363;28;20128;-77
2022/09/30 10:31:34;;;;;;;7.65;6.72;;;14.50;99.90;;;;;;4987672;28;20042;-76
2022/09/30 10:34:10;;;;;;;11.52;8.10;;;14.70;99.90;;;;;;4991269;28;20053;-76
2022/09/30 10:36:39;;;;;;;8.13;5.15;;;14.80;99.90;;;;;;5013302;28;20037;-76
2022/09/30 10:39:18;;;;;;;7.00;4.32;;;15.00;99.90;;;;;;5010449;28;20046;-76
2022/09/30 10:41:44;;;;;;;5.65;4.47;;;15.20;99.90;;;;;;4993494;28;20056;-78
2022/09/30 10:44:20;;;;;;;5.05;4.25;;;15.30;99.90;;;;;;5001324;28;20041;-76
2022/09/30 10:46:48;;;;;;;5.28;4.78;;;15.30;99.90;;;;;;4985584;28;20054;-77
2022/09/30 10:49:29;;;;;;;8.60;4.53;;;15.40;99.90;;;;;;5005355;28;20049;-77
2022/09/30 10:51:56;;;;;;;6.15;4.13;;;15.60;99.90;;;;;;5000952;28;20088;-77
2022/09/30 10:54:34;;;;;;;3.97;3.58;;;15.70;99.90;;;;;;4996151;28;20050;-76
2022/09/30 10:57:02;;;;;;;4.90;3.97;;;15.90;99.90;;;;;;4980537;28;20052;-76
2022/09/30 10:59:36;;;;;;;3.97;3.58;;;16.10;99.90;;;;;;5001272;28;20144;-76
2022/09/30 11:02:19;;;;;;;4.63;4.15;;;16.20;99.90;;;;;;4998217;28;20062;-76
2022/09/30 11:04:55;;;;;;;4.57;3.95;;;16.20;99.90;;;;;;4990509;28;20160;-79
2022/09/30 11:07:49;;;;;;;4.60;3.72;;;16.20;99.90;;;;;;4997455;28;20053;-77
2022/09/30 11:10:29;;;;;;;4.78;4.10;;;16.20;99.90;;;;;;4993695;28;20423;-77
2022/09/30 11:13:16;;;;;;;3.65;3.17;;;16.40;99.90;;;;;;4993257;28;20034;-77
2022/09/30 11:15:55;;;;;;;6.38;2.80;;;16.70;99.90;;;;;;5003043;28;20500;-77
2022/09/30 11:18:28;;;;;;;9.00;2.70;;;16.90;99.90;;;;;;4993834;28;20132;-77
2022/09/30 11:21:00;;;;;;;3.45;2.90;;;17.10;99.90;;;;;;4995480;28;20184;-78
2022/09/30 11:23:36;;;;;;;3.40;2.95;;;17.00;99.90;;;;;;4987906;28;20099;-78
2022/09/30 11:26:16;;;;;;;6.50;3.13;;;17.00;99.90;;;;;;4998455;28;20042;-76
2022/09/30 11:28:53;;;;;;;4.55;3.75;;;17.00;99.90;;;;;;4980173;28;20042;-81
2022/09/30 11:31:38;;;;;;;4.57;3.90;;;17.30;99.90;;;;;;4994221;28;20103;-77
2022/09/30 11:34:48;;;;;;;8.30;4.07;;;17.50;99.90;;;;;;5005662;28;20128;-76
2022/09/30 11:37:39;;;;;;;5.93;4.40;;;17.80;99.90;;;;;;5006079;28;20049;-76
2022/09/30 11:40:29;;;;;;;4.97;4.18;;;18.00;99.90;;;;;;4997725;28;20043;-76
2022/09/30 11:43:01;;;;;;;7.38;4.40;;;18.00;99.90;;;;;;5009436;28;20192;-77
2022/09/30 11:45:39;;;;;;;;;;;18.00;99.90;;;;;;5010987;28;20120;-76
2022/09/30 11:48:24;;;;;;;7.38;4.82;;;18.20;99.90;;;;;;5007798;28;19917;-76
2022/09/30 11:51:04;;;;;;;4.47;3.50;;;18.10;99.90;;;;;;4997843;28;20049;-76
2022/09/30 11:53:39;;;;;;;5.50;3.95;;;17.90;99.90;;;;;;4998895;28;20083;-75
2022/09/30 11:56:04;;;;;;;3.95;3.40;;;17.70;99.90;;;;;;4992055;28;20077;-78
2022/09/30 11:58:42;;;;;;;5.82;4.70;;;17.70;99.90;;;;;;5001993;28;20104;-77
2022/09/30 12:01:24;;;;;;;8.45;4.57;;;18.00;99.90;;;;;;5015448;28;20046;-75
2022/09/30 12:04:13;;;;;;;4.93;4.40;;;18.20;99.90;;;;;;4999809;28;20137;-78
2022/09/30 12:06:49;;;;;;;5.35;4.88;;;18.50;99.90;;;;;;4992286;28;20415;-78
2022/09/30 12:09:46;;;;;;;6.07;4.90;;;18.50;99.90;;;;;;5013919;28;20069;-77
2022/09/30 12:12:15;;;;;;;6.90;6.20;;;18.30;99.90;;;;;;5014204;28;20053;-78
2022/09/30 12:14:52;;;;;;;8.75;6.53;;;18.00;99.90;;;;;;5001446;28;20042;-77
2022/09/30 12:17:30;;;;;;;7.30;6.60;;;17.80;99.90;;;;;;5002963;28;20059;-76
2022/09/30 12:20:01;;;;;;;7.60;6.75;;;17.70;99.90;;;;;;5000849;28;20068;-77
2022/09/30 12:22:38;;;;;;;9.25;7.50;;;17.60;99.90;;;;;;5007783;28;20045;-78
2022/09/30 12:25:28;;;;;;;9.20;7.90;;;17.80;99.90;;;;;;5014821;28;20057;-78
2022/09/30 12:31:41;;;;;;;7.82;7.10;;;17.80;99.90;;;;;;4978238;28;20488;-78
2022/09/30 12:34:07;;;;;;;7.47;6.43;;;17.90;99.90;;;;;;5004476;28;20041;-76
2022/09/30 12:36:58;;;;;;;9.93;7.68;;;18.10;99.90;;;;;;5001414;28;20492;-77
2022/09/30 12:39:44;;;;;;;8.18;7.38;;;18.30;99.90;;;;;;4998165;28;20053;-77
2022/09/30 12:42:32;;;;;;;9.30;7.95;;;18.30;99.90;;;;;;5006438;28;20066;-78
2022/09/30 12:45:16;;;;;;;10.55;8.80;;;18.20;99.90;;;;;;5000614;28;20045;-76
2022/09/30 12:47:51;;;;;;;10.00;9.02;;;18.10;99.90;;;;;;4999062;28;20440;-77
2022/09/30 12:50:21;;;;;;;9.57;8.68;;;18.20;99.90;;;;;;5015789;28;20103;-77
2022/09/30 12:52:48;;;;;;;11.80;9.02;;;18.10;99.90;;;;;;5000485;28;20054;-79
2022/09/30 12:55:32;;;;;;;10.68;9.48;;;18.10;99.90;;;;;;5015586;28;20052;-79
2022/09/30 12:58:00;;;;;;;11.77;10.60;;;18.20;99.90;;;;;;5008855;28;20045;-77
2022/09/30 13:00:29;;;;;;;11.23;10.23;;;18.40;99.90;;;;;;4991957;28;20447;-78
2022/09/30 13:03:09;;;;;;;12.35;11.15;;;18.40;99.90;;;;;;4990290;28;20046;-76
2022/09/30 13:05:36;;;;;;;11.82;10.68;;;18.50;99.90;;;;;;4999708;28;20191;-77
2022/09/30 13:08:05;;;;;;;12.35;11.18;;;18.30;99.90;;;;;;4985669;28;20519;-79
2022/09/30 13:10:45;;;;;;;12.68;11.38;;;18.10;99.90;;;;;;5013498;28;20041;-75
2022/09/30 13:13:23;;;;;;;10.70;9.60;;;18.00;99.90;;;;;;5006733;28;20120;-77
2022/09/30 13:15:50;;;;;;;12.05;10.85;;;18.20;99.90;;;;;;5001792;28;20689;-76
2022/09/30 13:18:19;;;;;;;13.68;10.48;;;18.20;99.90;;;;;;4998861;28;20637;-76
2022/09/30 13:20:55;;;;;;;11.35;10.25;;;18.20;99.90;;;;;;5003554;28;20054;-79